createdAt,value
2023-05-01T00:00:07.668Z,1.67
2023-05-01T00:02:36.041Z,2.05
2023-05-01T00:05:06.389Z,1.90
2023-05-01T00:07:35.416Z,1.77
2023-05-01T00:10:03.776Z,1.67
2023-05-01T00:12:31.999Z,1.70
2023-05-01T00:15:00.249Z,2.22
2023-05-01T00:17:28.602Z,1.80
2023-05-01T00:19:57.000Z,1.42
2023-05-01T00:22:26.927Z,1.98
2023-05-01T00:24:55.271Z,2.00
2023-05-01T00:27:23.556Z,1.55
2023-05-01T00:29:52.160Z,1.90
2023-05-01T00:32:20.494Z,1.80
2023-05-01T00:34:49.300Z,1.80
2023-05-01T00:37:18.336Z,1.65
2023-05-01T00:39:47.998Z,1.60
2023-05-01T00:42:16.552Z,1.48
2023-05-01T00:44:44.829Z,2.00
2023-05-01T00:47:13.700Z,1.67
2023-05-01T00:49:43.684Z,2.25
2023-05-01T00:52:13.228Z,2.05
2023-05-01T00:54:41.987Z,1.83
2023-05-01T00:57:11.960Z,1.50
2023-05-01T00:59:40.259Z,1.60
2023-05-01T01:02:08.852Z,1.67
2023-05-01T01:04:37.186Z,1.80
2023-05-01T01:07:12.621Z,1.67
2023-05-01T01:09:49.929Z,2.33
2023-05-01T01:12:28.461Z,1.83
2023-05-01T01:15:02.441Z,1.98
2023-05-01T01:17:37.376Z,1.48
2023-05-01T01:20:32.321Z,1.60
2023-05-01T01:23:25.664Z,2.45
2023-05-01T01:26:14.647Z,1.67
2023-05-01T01:29:23.150Z,2.45
2023-05-01T01:32:05.713Z,1.73
2023-05-01T01:34:37.345Z,2.03
2023-05-01T01:37:13.227Z,1.60
2023-05-01T01:39:50.635Z,1.60
2023-05-01T01:42:21.775Z,1.55
2023-05-01T01:44:53.771Z,1.58
2023-05-01T01:47:28.273Z,1.77
2023-05-01T01:49:59.305Z,1.73
2023-05-01T01:52:30.278Z,1.40
2023-05-01T01:55:05.256Z,1.70
2023-05-01T01:57:34.503Z,1.67
2023-05-01T02:00:02.756Z,1.70
2023-05-01T02:02:42.363Z,1.77
2023-05-01T02:05:16.112Z,1.70
2023-05-01T02:07:47.850Z,3.72
2023-05-01T02:10:17.915Z,1.40
2023-05-01T02:12:49.220Z,1.63
2023-05-01T02:15:19.398Z,1.70
2023-05-01T02:17:49.460Z,1.77
2023-05-01T02:20:21.329Z,1.52
2023-05-01T02:22:52.588Z,2.00
2023-05-01T02:25:21.219Z,1.55
2023-05-01T02:27:57.871Z,2.03
2023-05-01T02:30:26.083Z,1.60
2023-05-01T02:32:54.368Z,2.00
2023-05-01T02:35:24.244Z,1.60
2023-05-01T02:37:52.565Z,1.95
2023-05-01T02:40:21.849Z,1.50
2023-05-01T02:42:52.698Z,1.60
2023-05-01T02:45:24.829Z,1.40
2023-05-01T02:47:57.202Z,1.70
2023-05-01T02:50:27.870Z,1.92
2023-05-01T02:52:56.740Z,1.67
2023-05-01T02:55:34.968Z,1.77
2023-05-01T02:58:03.494Z,1.95
2023-05-01T03:00:31.733Z,1.60
2023-05-01T03:03:00.025Z,1.70
2023-05-01T03:05:29.700Z,1.70
2023-05-01T03:07:57.952Z,1.85
2023-05-01T03:10:26.363Z,1.40
2023-05-01T03:12:54.564Z,1.50
2023-05-01T03:15:22.814Z,1.40
2023-05-01T03:17:51.123Z,1.50
2023-05-01T03:20:19.381Z,1.40
2023-05-01T03:22:48.971Z,1.80
2023-05-01T03:25:17.399Z,1.70
2023-05-01T03:27:45.657Z,1.40
2023-05-01T03:30:14.115Z,1.52
2023-05-01T03:32:43.624Z,1.42
2023-05-01T03:35:19.738Z,1.60
2023-05-01T03:37:49.299Z,1.75
2023-05-01T03:40:36.740Z,1.50
2023-05-01T03:43:26.125Z,1.50
2023-05-01T03:45:55.509Z,1.90
2023-05-01T03:48:24.845Z,1.60
2023-05-01T03:50:53.440Z,1.60
2023-05-01T03:53:23.483Z,1.63
2023-05-01T03:55:51.880Z,1.80
2023-05-01T03:58:22.293Z,1.42
2023-05-01T04:00:51.244Z,2.28
2023-05-01T04:03:19.982Z,1.98
2023-05-01T04:05:50.897Z,1.42
2023-05-01T04:08:19.128Z,1.58
2023-05-01T04:10:48.731Z,2.58
2023-05-01T04:13:17.011Z,1.55
2023-05-01T04:15:46.495Z,1.50
2023-05-01T04:18:14.953Z,1.60
2023-05-01T04:20:43.221Z,1.77
2023-05-01T04:23:12.737Z,1.98
2023-05-01T04:25:41.053Z,1.65
2023-05-01T04:28:15.168Z,1.60
2023-05-01T04:30:43.385Z,2.05
2023-05-01T04:33:12.565Z,1.95
2023-05-01T04:35:42.465Z,1.60
2023-05-01T04:38:11.058Z,1.33
2023-05-01T04:40:41.862Z,3.17
2023-05-01T04:43:11.415Z,1.75
2023-05-01T04:45:41.542Z,2.95
2023-05-01T04:48:09.931Z,1.98
2023-05-01T04:50:38.147Z,1.80
2023-05-01T04:53:06.477Z,1.65
2023-05-01T04:55:36.886Z,1.60
2023-05-01T04:58:13.596Z,1.60
2023-05-01T05:00:43.426Z,1.92
2023-05-01T05:03:19.176Z,2.92
2023-05-01T05:05:47.637Z,2.97
2023-05-01T05:08:16.474Z,2.22
2023-05-01T05:11:07.259Z,1.50
2023-05-01T05:13:41.605Z,2.17
2023-05-01T05:16:15.298Z,2.83
2023-05-01T05:18:43.804Z,2.20
2023-05-01T05:21:12.364Z,2.95
2023-05-01T05:23:46.331Z,2.45
2023-05-01T05:26:15.061Z,1.88
2023-05-01T05:28:43.404Z,1.40
2023-05-01T05:31:11.680Z,1.35
2023-05-01T05:33:41.467Z,1.40
2023-05-01T05:36:09.931Z,2.13
2023-05-01T05:38:42.455Z,2.53
2023-05-01T05:41:13.474Z,1.50
2023-05-01T05:43:41.995Z,1.88
2023-05-01T05:46:11.665Z,1.80
2023-05-01T05:48:42.242Z,2.20
2023-05-01T05:51:11.082Z,1.75
2023-05-01T05:53:39.368Z,1.92
2023-05-01T05:56:08.667Z,1.40
2023-05-01T05:58:37.659Z,1.65
2023-05-01T06:01:07.157Z,3.65
2023-05-01T06:03:37.195Z,1.45
2023-05-01T06:06:07.467Z,1.75
2023-05-01T06:08:37.506Z,1.58
2023-05-01T06:11:09.518Z,2.03
2023-05-01T06:13:39.449Z,1.30
2023-05-01T06:16:08.515Z,1.50
2023-05-01T06:18:37.027Z,1.80
2023-05-01T06:21:06.985Z,1.30
2023-05-01T06:23:35.847Z,1.42
2023-05-01T06:26:26.200Z,2.47
2023-05-01T06:28:54.537Z,2.60
2023-05-01T06:31:23.116Z,2.15
2023-05-01T06:33:55.589Z,1.50
2023-05-01T06:36:49.608Z,1.60
2023-05-01T06:39:18.137Z,1.67
2023-05-01T06:41:47.464Z,3.35
2023-05-01T06:44:16.666Z,1.50
2023-05-01T06:46:44.928Z,1.40
2023-05-01T06:49:14.441Z,2.03
2023-05-01T06:51:42.764Z,1.83
2023-05-01T06:54:14.368Z,1.40
2023-05-01T06:56:43.150Z,1.45
2023-05-01T06:59:11.451Z,1.65
2023-05-01T07:01:39.895Z,2.03
2023-05-01T07:04:08.224Z,2.30
2023-05-01T07:06:37.278Z,1.98
2023-05-01T07:09:06.138Z,1.70
2023-05-01T07:11:36.092Z,3.08
2023-05-01T07:14:04.797Z,1.52
2023-05-01T07:16:33.404Z,1.40
2023-05-01T07:19:01.793Z,1.70
2023-05-01T07:21:29.998Z,1.58
2023-05-01T07:23:58.326Z,1.52
2023-05-01T07:26:27.251Z,1.40
2023-05-01T07:28:56.881Z,1.48
2023-05-01T07:31:25.188Z,1.50
2023-05-01T07:33:54.337Z,2.47
2023-05-01T07:36:22.663Z,1.52
2023-05-01T07:38:51.004Z,1.90
2023-05-01T07:41:19.349Z,1.58
2023-05-01T07:43:47.677Z,1.77
2023-05-01T07:46:17.558Z,1.55
2023-05-01T07:48:46.131Z,1.40
2023-05-01T07:51:14.613Z,1.65
2023-05-01T07:53:42.941Z,1.27
2023-05-01T07:56:11.397Z,1.45
2023-05-01T07:58:41.459Z,1.65
2023-05-01T08:01:10.267Z,1.48
2023-05-01T08:03:39.961Z,1.50
2023-05-01T08:06:08.366Z,1.63
2023-05-01T08:08:36.681Z,1.60
2023-05-01T08:11:04.983Z,1.60
2023-05-01T08:13:33.465Z,1.50
2023-05-01T08:16:05.167Z,2.00
2023-05-01T08:18:33.417Z,1.55
2023-05-01T08:21:03.126Z,1.48
2023-05-01T08:23:31.952Z,1.60
2023-05-01T08:26:00.192Z,1.50
2023-05-01T08:28:28.502Z,1.48
2023-05-01T08:30:56.931Z,1.75
2023-05-01T08:33:25.356Z,1.42
2023-05-01T08:35:53.937Z,2.10
2023-05-01T08:38:24.035Z,1.58
2023-05-01T08:40:54.385Z,2.40
2023-05-01T08:43:24.266Z,1.55
2023-05-01T08:45:55.886Z,1.58
2023-05-01T08:48:26.996Z,1.60
2023-05-01T08:50:58.673Z,2.45
2023-05-01T08:53:29.672Z,2.10
2023-05-01T08:55:59.338Z,1.52
2023-05-01T08:58:30.132Z,1.40
2023-05-01T09:01:01.237Z,1.40
2023-05-01T09:03:32.771Z,1.45
2023-05-01T09:06:03.795Z,1.45
2023-05-01T09:08:33.540Z,2.58
2023-05-01T09:11:02.765Z,1.63
2023-05-01T09:13:31.568Z,2.10
2023-05-01T09:16:00.636Z,1.58
2023-05-01T09:18:29.304Z,1.60
2023-05-01T09:20:58.323Z,1.35
2023-05-01T09:23:26.628Z,1.65
2023-05-01T09:25:57.016Z,1.38
2023-05-01T09:28:41.621Z,1.95
2023-05-01T09:31:29.097Z,1.40
2023-05-01T09:33:59.036Z,1.95
2023-05-01T09:36:29.851Z,1.55
2023-05-01T09:38:58.196Z,1.60
2023-05-01T09:41:28.441Z,1.38
2023-05-01T09:43:57.948Z,1.60
2023-05-01T09:46:27.678Z,1.50
2023-05-01T09:48:58.782Z,1.30
2023-05-01T09:51:29.088Z,1.60
2023-05-01T09:53:58.735Z,1.40
2023-05-01T09:56:29.809Z,1.42
2023-05-01T09:59:01.606Z,1.45
2023-05-01T10:01:40.591Z,1.52
2023-05-01T10:04:09.700Z,1.40
2023-05-01T10:06:38.566Z,1.65
2023-05-01T10:09:10.863Z,1.77
2023-05-01T10:11:55.758Z,1.63
2023-05-01T10:14:26.853Z,1.52
2023-05-01T10:16:57.659Z,1.48
2023-05-01T10:19:26.017Z,1.60
2023-05-01T10:21:54.646Z,2.13
2023-05-01T10:24:23.227Z,2.63
2023-05-01T10:26:53.765Z,4.05
2023-05-01T10:29:24.577Z,3.50
2023-05-01T10:31:53.068Z,4.80
2023-05-01T10:34:26.218Z,9.05
2023-05-01T10:37:03.920Z,8.50
2023-05-01T10:39:32.933Z,7.07
2023-05-01T10:42:08.661Z,8.52
2023-05-01T10:44:37.390Z,11.77
2023-05-01T10:47:41.580Z,7.25
2023-05-01T10:50:11.229Z,11.48
2023-05-01T10:53:13.044Z,11.68
2023-05-01T10:55:43.549Z,10.95
2023-05-01T10:58:14.022Z,10.88
2023-05-01T11:00:42.690Z,9.93
2023-05-01T11:03:35.664Z,10.57
2023-05-01T11:06:07.676Z,9.77
2023-05-01T11:08:38.605Z,12.55
2023-05-01T11:11:44.446Z,14.00
2023-05-01T11:14:14.057Z,12.30
2023-05-01T11:16:46.444Z,14.52
2023-05-01T11:19:50.466Z,11.73
2023-05-01T11:22:19.989Z,12.90
2023-05-01T11:24:48.959Z,15.43
2023-05-01T11:27:18.360Z,15.30
2023-05-01T11:29:50.905Z,13.55
2023-05-01T11:32:30.029Z,15.60
2023-05-01T11:34:58.968Z,12.15
2023-05-01T11:37:44.285Z,14.40
2023-05-01T11:40:23.004Z,16.88
2023-05-01T11:42:52.444Z,14.90
2023-05-01T11:45:22.059Z,13.02
2023-05-01T11:47:50.385Z,15.68
2023-05-01T11:50:18.899Z,15.70
2023-05-01T11:52:49.703Z,12.68
2023-05-01T11:55:18.490Z,15.60
2023-05-01T11:57:51.029Z,13.63
2023-05-01T12:00:30.710Z,14.80
2023-05-01T12:03:01.034Z,18.42
2023-05-01T12:05:31.925Z,15.60
2023-05-01T12:08:11.373Z,15.95
2023-05-01T12:10:41.766Z,13.85
2023-05-01T12:13:11.647Z,15.50
2023-05-01T12:15:43.946Z,14.98
2023-05-01T12:18:13.418Z,13.55
2023-05-01T12:20:43.122Z,14.43
2023-05-01T12:23:13.386Z,12.93
2023-05-01T12:25:42.975Z,13.80
2023-05-01T12:28:13.207Z,13.88
2023-05-01T12:30:44.953Z,14.70
2023-05-01T12:33:15.087Z,12.77
2023-05-01T12:35:46.773Z,13.50
2023-05-01T12:38:17.004Z,10.70
2023-05-01T12:40:54.441Z,12.82
2023-05-01T12:43:23.997Z,10.82
2023-05-01T12:45:54.838Z,11.32
2023-05-01T12:48:23.591Z,10.27
2023-05-01T12:50:55.026Z,15.32
